Racecast

Amadi Tolon

Sacramento Speed Factory (CA) · - · STS · Compare head to head

Athlete rating
Races 58
Seasons 3 2013 — 2015
Speed rating — all races

Track & Field

TF speed rating

2015 TF

Sacramento Speed Factory (CA) · Grade -

Date Meet Event Result Place Rating Difficulty PR/SR Flags
2015-05-31 PAC (Pacific Association Youth Champions 400m 1:22.56 11th · 2nd on team -0.024
2015-05-31 PAC (Pacific Association Youth Champions 200m 35.55 28th · 5th on team -0.024 SR
2015-05-16 3M Track Club Track and Field Invitation lj 1.97m -0.028
2015-05-16 3M Track Club Track and Field Invitation 400m 1:29.87 24th · 2nd on team -0.028
2015-05-16 3M Track Club Track and Field Invitation 200m 36.13 18th · 3rd on team -0.028 SR
2015-05-02 Running Rebels/Top Pacers Invitational lj 2.27m -0.038
2015-05-02 Running Rebels/Top Pacers Invitational 400m 1:20.57 3rd · 1st on team -0.038 SR
2015-04-25 Revolution Express Track Club 200m 37.1 15th · 5th on team -0.024 SR
2015-04-25 Revolution Express Track Club 400m 1:27.5 8th · 1st on team -0.024
2015-04-25 Revolution Express Track Club 100m 17.19 18th · 3rd on team -0.024
2015-04-11 Big Valley Track and Field Sectional Mee 100m 16.99 2nd · 2nd on team -0.027 ★PR SR
2015-04-11 Big Valley Track Club Invitational 100m 16.99 12th · 2nd on team -0.027
2015-04-11 Big Valley Track and Field Sectional Mee 400m 1:28.27 3rd · 3rd on team -0.027
2015-04-11 Big Valley Track Club Invitational 400m 1:28.27 13th · 3rd on team -0.027
2015-04-04 Sacramento Speed Factory lj 6-11.25 -0.033
2015-04-04 Sacramento Speed Factory 200m 39.17 13th · 2nd on team -0.033 SR
2015-04-04 Sacramento Speed Factory 100m 17.77 22nd · 4th on team -0.033
2015-03-21 RPM Legacy lj 2.18m -0.020
2015-03-21 RPM Legacy 100m 17.19 18th · 3rd on team -0.020 PR SR
2015-03-21 RPM Legacy 400m 1:27 12th · 4th on team -0.020
2015-03-07 RETC/CVRR/SSF/Mt House Practice meet 400m 1:21.47 1st · 1st on team -0.024 SR
2015-03-07 RETC/CVRR/SSF/Mt House Practice meet 100m 17.29 2nd · 2nd on team -0.024 SR

2014 TF

Sacramento Speed Factory (CA) · Grade -

Date Meet Event Result Place Rating Difficulty PR/SR Flags
2014-06-20 USATF Pacific Assoc. Junior Olympics (Top 8) 400m 1:24.25 26th · 4th on team -0.031
2014-05-31 Pacific Association Championships (PAC) 200m 36.12 39th · 12th on team -0.024
2014-05-31 Pacific Association Championships (PAC) 400m 1:19.88 7th · 2nd on team -0.024 ★PR SR
2014-05-24 Central Valley Roadrunners 200m 35.04 22nd · 8th on team -0.026 ★PR SR
2014-05-24 Central Valley Roadrunners 400m 1:22.12 5th · 2nd on team -0.026 PR SR
2014-05-18 3M Invitational 200m 38.35 16th · 9th on team -0.028
2014-05-18 3M Invitational 400m 1:28.02 11th · 2nd on team -0.028
2014-05-03 Hercules Running Rebels/Top Pacers Inv. 400m 1:22.38 6th · 6th on team -0.038 PR SR
2014-04-26 Revolution Express TC 400m 1:25.7 10th · 3rd on team -0.024 PR SR
2014-04-26 Revolution Express TC 100m 17.95 28th · 9th on team -0.024
2014-04-26 Revolution Express TC 200m 38.1 18th · 7th on team -0.024 PR SR
2014-04-05 Sacramento Speed Showcase 400m 1:32.85 30th · 9th on team -0.033 PR SR
2014-04-05 Sacramento Speed Showcase 100m 17.2 27th · 8th on team -0.033 PR SR
2014-04-05 Sacramento Speed Showcase 200m 38.93 21st · 8th on team -0.033 PR SR
2014-03-22 RPM lj 7-08.25 -0.012
2014-03-22 RPM 400m 1:39.44 39th · 11th on team -0.012 PR SR
2014-03-22 RPM 100m 18.94 49th · 10th on team -0.012 SR

2013 TF

Sacramento Speed Factory (CA) · Grade -

Date Meet Event Result Place Rating Difficulty PR/SR Flags
2013-06-08 Pacific Association Youth Championship (PAC) - 2-day meet 200m 39.42 3rd · 2nd on team -0.024 PR SR
2013-06-08 Pacific Association Youth Championship (PAC) - 2-day meet 100m 18.51 2nd · 2nd on team -0.024 PR SR
2013-05-11 Classic Track Club Relays lj 5-03.75 -0.011
2013-05-11 Classic Track Club Relays 100m 19.22 22nd · 3rd on team -0.011
2013-05-11 Classic Track Club Relays 200m 46.02 21st · 6th on team -0.011
2013-05-04 Hercules / Running Rebels (2-day) lj 1.79m -0.038
2013-05-04 Hercules / Running Rebels (2-day) 100m 19.58 71st · 8th on team -0.038
2013-04-27 Revolution Express Track Club lj 5-07.75 -0.024
2013-04-27 Revolution Express Track Club 200m 43.22 22nd · 7th on team -0.024 PR SR
2013-04-27 Revolution Express Track Club 100m 19 28th · 6th on team -0.024 PR SR
2013-04-20 Shor / Sheppard Classic lj DNF -0.022
2013-04-06 Sacramento Speed Showcase lj 4-07.00 -0.031
2013-04-06 Sacramento Speed Showcase 100m 20.53 32nd · 6th on team -0.031 PR SR
2013-03-30 Stockton Saints lj 5-02.50 -0.016
2013-03-09 RETC home practice meet lj 6'7" -0.024
2013-03-09 RETC home practice meet javelin 20'11" -0.024
2013-03-09 RETC home practice meet 100m 21.24 13th · 9th on team -0.024 PR SR
2013-03-09 RETC home practice meet 400m 2:05.14 16th · 11th on team -0.024 PR SR
2013-03-09 RETC home practice meet 200m 50.14 12th · 9th on team -0.024 PR SR